createdAt,value
2018-05-15T00:01:30.359Z,16.40
2018-05-15T00:03:57.975Z,17.53
2018-05-15T00:06:25.686Z,15.07
2018-05-15T00:08:53.298Z,17.60
2018-05-15T00:11:21.706Z,19.03
2018-05-15T00:13:49.387Z,18.50
2018-05-15T00:16:17.031Z,18.60
2018-05-15T00:18:44.710Z,18.43
2018-05-15T00:21:12.374Z,17.23
2018-05-15T00:23:40.036Z,17.93
2018-05-15T00:26:07.679Z,17.70
2018-05-15T00:28:35.297Z,18.30
2018-05-15T00:31:02.935Z,18.63
2018-05-15T00:33:30.548Z,18.13
2018-05-15T00:35:58.247Z,20.40
2018-05-15T00:38:25.862Z,19.00
2018-05-15T00:40:53.503Z,17.23
2018-05-15T00:43:21.124Z,18.20
2018-05-15T00:45:48.779Z,19.10
2018-05-15T00:48:16.403Z,18.43
2018-05-15T00:50:44.019Z,16.90
2018-05-15T00:53:11.659Z,18.30
2018-05-15T00:55:44.996Z,20.00
2018-05-15T00:58:12.638Z,19.00
2018-05-15T01:00:40.295Z,19.07
2018-05-15T01:03:07.958Z,20.50
2018-05-15T01:05:35.633Z,20.03
2018-05-15T01:08:03.385Z,20.00
2018-05-15T01:10:31.051Z,19.67
2018-05-15T01:12:58.691Z,20.53
2018-05-15T01:15:26.307Z,19.90
2018-05-15T01:17:53.958Z,19.70
2018-05-15T01:20:21.574Z,21.40
2018-05-15T01:22:49.211Z,20.73
2018-05-15T01:25:16.918Z,21.77
2018-05-15T01:27:44.555Z,22.70
2018-05-15T01:30:12.174Z,22.80
2018-05-15T01:32:39.910Z,22.10
2018-05-15T01:35:07.575Z,20.90
2018-05-15T01:37:35.214Z,20.50
2018-05-15T01:40:02.845Z,20.70
2018-05-15T01:42:30.563Z,20.20
2018-05-15T01:44:58.178Z,23.20
2018-05-15T01:47:25.886Z,22.77
2018-05-15T01:49:53.502Z,22.80
2018-05-15T01:52:21.210Z,22.57
2018-05-15T01:54:48.823Z,21.90
2018-05-15T01:57:16.530Z,24.20
2018-05-15T01:59:44.142Z,25.60
2018-05-15T02:02:11.795Z,25.50
2018-05-15T02:04:39.410Z,21.60
2018-05-15T02:07:07.083Z,22.97
2018-05-15T02:09:34.723Z,21.60
2018-05-15T02:12:02.338Z,22.30
2018-05-15T02:14:29.974Z,24.07
2018-05-15T02:16:57.630Z,24.23
2018-05-15T02:19:25.270Z,23.67
2018-05-15T02:21:52.955Z,26.40
2018-05-15T02:24:20.620Z,23.63
2018-05-15T02:26:48.236Z,25.03
2018-05-15T02:29:15.874Z,26.03
2018-05-15T02:31:43.492Z,25.03
2018-05-15T02:34:11.163Z,24.83
2018-05-15T02:36:38.826Z,26.63
2018-05-15T02:39:06.584Z,25.87
2018-05-15T02:41:34.206Z,29.13
2018-05-15T02:44:01.850Z,26.40
2018-05-15T02:46:29.469Z,29.07
2018-05-15T02:48:57.146Z,28.60
2018-05-15T02:51:24.771Z,26.20
2018-05-15T02:53:52.467Z,27.77
2018-05-15T02:56:20.127Z,28.60
2018-05-15T02:58:47.772Z,28.43
2018-05-15T03:01:15.387Z,28.70
2018-05-15T03:03:43.023Z,29.30
2018-05-15T03:06:10.638Z,28.70
2018-05-15T03:08:38.290Z,28.20
2018-05-15T03:11:05.907Z,27.63
2018-05-15T03:13:33.550Z,29.47
2018-05-15T03:16:01.223Z,28.67
2018-05-15T03:18:28.838Z,29.33
2018-05-15T03:20:56.478Z,29.20
2018-05-15T03:23:24.092Z,30.27
2018-05-15T03:25:51.740Z,28.93
2018-05-15T03:28:19.431Z,26.87
2018-05-15T03:30:47.075Z,24.80
2018-05-15T03:33:14.754Z,27.60
2018-05-15T03:35:42.422Z,27.80
2018-05-15T03:38:10.035Z,28.77
2018-05-15T03:40:37.675Z,30.30
2018-05-15T03:43:05.291Z,29.07
2018-05-15T03:45:32.931Z,26.60
2018-05-15T03:48:00.551Z,31.30
2018-05-15T03:50:28.187Z,27.97
2018-05-15T03:52:55.852Z,29.93
2018-05-15T03:55:23.515Z,28.73
2018-05-15T03:57:51.179Z,29.60
2018-05-15T04:00:30.438Z,28.97
2018-05-15T04:03:09.951Z,28.43
2018-05-15T04:05:49.390Z,25.83
2018-05-15T04:08:17.006Z,25.30
2018-05-15T04:10:44.648Z,27.10
2018-05-15T04:13:14.015Z,24.37
2018-05-15T04:15:41.668Z,25.00
2018-05-15T04:18:09.291Z,26.43
2018-05-15T04:20:37.006Z,25.60
2018-05-15T04:23:04.667Z,25.27
2018-05-15T04:25:32.307Z,25.80
2018-05-15T04:28:00.083Z,25.07
2018-05-15T04:30:27.755Z,24.43
2018-05-15T04:32:55.374Z,25.37
2018-05-15T04:35:23.048Z,23.93
2018-05-15T04:37:50.742Z,23.70
2018-05-15T04:40:18.406Z,21.93
2018-05-15T04:42:46.046Z,23.97
2018-05-15T04:45:13.674Z,23.00
2018-05-15T04:47:41.385Z,21.90
2018-05-15T04:50:08.999Z,21.97
2018-05-15T04:52:36.639Z,24.20
2018-05-15T04:55:04.259Z,21.70
2018-05-15T04:57:31.902Z,20.17
2018-05-15T04:59:59.519Z,21.80
2018-05-15T05:02:27.166Z,22.60
2018-05-15T05:04:54.790Z,22.70
2018-05-15T05:07:22.431Z,21.67
2018-05-15T05:09:50.046Z,20.10
2018-05-15T05:12:17.719Z,21.33
2018-05-15T05:14:45.335Z,21.43
2018-05-15T05:17:13.029Z,21.67
2018-05-15T05:19:40.710Z,20.13
2018-05-15T05:22:08.462Z,20.43
2018-05-15T05:24:36.078Z,21.20
2018-05-15T05:27:03.732Z,22.20
2018-05-15T05:29:31.359Z,20.97
2018-05-15T05:31:59.005Z,20.77
2018-05-15T05:34:26.679Z,22.57
2018-05-15T05:36:54.315Z,22.13
2018-05-15T05:39:21.930Z,22.47
2018-05-15T05:41:49.567Z,22.23
2018-05-15T05:44:17.222Z,19.93
2018-05-15T05:46:44.883Z,22.20
2018-05-15T05:49:12.557Z,23.77
2018-05-15T05:51:40.210Z,21.10
2018-05-15T05:54:07.871Z,18.90
2018-05-15T05:56:35.628Z,24.07
2018-05-15T05:59:03.299Z,20.97
2018-05-15T06:01:30.918Z,21.87
2018-05-15T06:03:58.558Z,21.43
2018-05-15T06:06:26.171Z,23.53
2018-05-15T06:08:53.847Z,20.93
2018-05-15T06:11:21.511Z,21.00
2018-05-15T06:13:49.151Z,21.23
2018-05-15T06:16:16.766Z,21.77
2018-05-15T06:18:44.407Z,21.47
2018-05-15T06:21:12.022Z,21.57
2018-05-15T06:23:39.670Z,21.80
2018-05-15T06:26:07.382Z,19.30
2018-05-15T06:28:35.019Z,16.40
2018-05-15T06:31:02.635Z,17.47
2018-05-15T06:33:30.270Z,18.37
2018-05-15T06:35:57.931Z,19.00
2018-05-15T06:38:25.596Z,17.10
2018-05-15T06:40:53.259Z,16.13
2018-05-15T06:43:20.968Z,14.40
2018-05-15T06:45:48.547Z,13.93
2018-05-15T06:48:16.337Z,14.40
2018-05-15T06:50:43.959Z,15.93
2018-05-15T06:53:11.599Z,14.03
2018-05-15T06:55:39.214Z,14.57
2018-05-15T06:58:06.880Z,12.40
2018-05-15T07:00:34.559Z,13.63
2018-05-15T07:03:02.217Z,12.13
2018-05-15T07:05:29.878Z,11.87
2018-05-15T07:07:57.495Z,11.37
2018-05-15T07:10:25.136Z,12.57
2018-05-15T07:12:52.770Z,10.47
2018-05-15T07:15:20.406Z,10.53
2018-05-15T07:17:48.184Z,10.60
2018-05-15T07:20:15.823Z,11.00
2018-05-15T07:22:43.448Z,10.37
2018-05-15T07:25:11.089Z,11.30
2018-05-15T07:27:38.703Z,10.87
2018-05-15T07:30:06.336Z,9.53
2018-05-15T07:32:33.948Z,9.83
2018-05-15T07:35:01.575Z,9.70
2018-05-15T07:37:29.222Z,10.20
2018-05-15T07:39:56.951Z,9.43
2018-05-15T07:42:24.611Z,9.90
2018-05-15T07:44:52.274Z,10.80
2018-05-15T07:47:19.887Z,9.70
2018-05-15T07:49:47.603Z,9.30
2018-05-15T07:52:15.263Z,9.33
2018-05-15T07:54:42.927Z,9.50
2018-05-15T07:57:10.591Z,10.63
2018-05-15T07:59:38.237Z,10.70
2018-05-15T08:02:05.972Z,9.20
2018-05-15T08:04:33.679Z,10.20
2018-05-15T08:07:01.295Z,10.07
2018-05-15T08:09:28.942Z,9.30
2018-05-15T08:11:56.565Z,9.13
2018-05-15T08:14:24.226Z,9.60
2018-05-15T08:16:51.867Z,9.70
2018-05-15T08:19:19.550Z,9.70
2018-05-15T08:21:47.219Z,9.00
2018-05-15T08:24:14.836Z,8.87
2018-05-15T08:26:42.535Z,9.13
2018-05-15T08:29:10.203Z,9.23
2018-05-15T08:31:37.838Z,7.90
2018-05-15T08:34:05.447Z,8.83
2018-05-15T08:36:33.079Z,8.80
2018-05-15T08:39:00.843Z,8.93
2018-05-15T08:41:28.480Z,8.00
2018-05-15T08:43:56.098Z,7.43
2018-05-15T08:46:23.732Z,8.30
2018-05-15T08:48:51.778Z,7.63
2018-05-15T08:51:19.419Z,6.47
2018-05-15T08:53:47.130Z,8.50
2018-05-15T08:56:14.763Z,7.17
2018-05-15T08:58:42.374Z,7.57
2018-05-15T09:01:10.002Z,6.23
2018-05-15T09:03:37.680Z,7.00
2018-05-15T09:06:05.350Z,6.57
2018-05-15T09:08:32.963Z,8.47
2018-05-15T09:11:00.600Z,5.80
2018-05-15T09:13:28.330Z,6.77
2018-05-15T09:15:55.966Z,7.60
2018-05-15T09:18:23.653Z,6.23
2018-05-15T09:20:51.319Z,6.83
2018-05-15T09:23:18.930Z,6.70
2018-05-15T09:25:46.644Z,7.07
2018-05-15T09:28:14.256Z,8.70
2018-05-15T09:30:41.966Z,8.60
2018-05-15T09:33:09.603Z,8.80
2018-05-15T09:35:37.286Z,8.90
2018-05-15T09:38:04.955Z,7.73
2018-05-15T09:40:32.618Z,7.93
2018-05-15T09:43:00.256Z,7.53
2018-05-15T09:45:27.890Z,7.17
2018-05-15T09:47:55.523Z,7.43
2018-05-15T09:50:23.131Z,7.80
2018-05-15T09:52:50.774Z,6.77
2018-05-15T09:55:18.391Z,7.13
2018-05-15T09:57:46.027Z,7.00
2018-05-15T10:00:13.648Z,6.93
2018-05-15T10:02:41.375Z,6.93
2018-05-15T10:05:09.039Z,7.50
2018-05-15T10:07:36.716Z,6.07
2018-05-15T10:10:04.354Z,6.63
2018-05-15T10:12:31.990Z,6.87
2018-05-15T10:14:59.610Z,6.37
2018-05-15T10:17:27.346Z,6.90
2018-05-15T10:19:55.033Z,7.03
2018-05-15T10:22:22.663Z,6.13
2018-05-15T10:24:50.298Z,6.87
2018-05-15T10:27:17.998Z,7.80
2018-05-15T10:29:45.635Z,6.07
2018-05-15T10:32:13.331Z,6.10
2018-05-15T10:34:40.988Z,5.30
2018-05-15T10:37:08.602Z,6.43
2018-05-15T10:39:36.305Z,6.27
2018-05-15T10:42:03.915Z,5.37
2018-05-15T10:44:31.634Z,6.40
2018-05-15T10:46:59.243Z,6.00
2018-05-15T10:49:26.962Z,6.17
2018-05-15T10:51:54.622Z,5.57
2018-05-15T10:54:22.257Z,5.83
2018-05-15T10:56:50.045Z,5.90
2018-05-15T10:59:17.678Z,6.10
2018-05-15T11:01:45.290Z,5.83
2018-05-15T11:04:12.927Z,5.70
2018-05-15T11:06:40.599Z,5.40
2018-05-15T11:09:08.879Z,5.20
2018-05-15T11:11:36.546Z,5.60
2018-05-15T11:14:04.186Z,5.57
2018-05-15T11:16:31.799Z,5.00
2018-05-15T11:22:11.631Z,6.30
2018-05-15T11:24:51.276Z,5.20
2018-05-15T11:27:18.936Z,5.87
2018-05-15T11:29:46.604Z,6.93
2018-05-15T11:32:14.211Z,5.60
2018-05-15T11:34:41.843Z,5.83
2018-05-15T11:37:09.456Z,5.77
2018-05-15T11:39:37.147Z,5.97
2018-05-15T11:42:04.778Z,5.10
2018-05-15T11:44:32.391Z,5.43
2018-05-15T11:47:00.135Z,6.53
2018-05-15T11:49:28.437Z,5.90
2018-05-15T11:51:56.158Z,5.20
2018-05-15T11:54:23.057Z,6.07
2018-05-15T11:56:50.691Z,5.30
2018-05-15T11:59:18.302Z,5.80
2018-05-15T12:01:45.958Z,6.00
2018-05-15T12:04:13.570Z,6.50
2018-05-15T12:06:41.203Z,5.70
2018-05-15T12:09:08.905Z,5.40
2018-05-15T12:11:36.466Z,5.60
2018-05-15T12:14:04.078Z,5.60
2018-05-15T12:16:31.778Z,5.43
2018-05-15T12:18:59.391Z,5.37
2018-05-15T12:21:27.031Z,5.30
2018-05-15T12:23:54.763Z,5.80
2018-05-15T12:26:22.431Z,5.60
2018-05-15T12:28:50.043Z,6.07
2018-05-15T12:31:17.758Z,5.40
2018-05-15T12:33:45.359Z,5.47
2018-05-15T12:36:12.986Z,5.80
2018-05-15T12:38:40.599Z,6.23
2018-05-15T12:41:08.299Z,5.50
2018-05-15T12:43:35.906Z,6.93
2018-05-15T12:46:03.570Z,6.17
2018-05-15T12:48:31.328Z,5.50
2018-05-15T12:50:58.945Z,6.87
2018-05-15T12:53:26.574Z,5.70
2018-05-15T12:55:54.187Z,5.90
2018-05-15T12:58:21.818Z,5.57
2018-05-15T13:00:49.426Z,4.90
2018-05-15T13:03:17.067Z,5.80
2018-05-15T13:05:44.776Z,6.07
2018-05-15T13:08:12.491Z,6.23
2018-05-15T13:10:40.105Z,6.03
2018-05-15T13:13:07.742Z,6.43
2018-05-15T13:15:35.582Z,5.87
2018-05-15T13:18:03.220Z,5.60
2018-05-15T13:20:30.903Z,6.67
2018-05-15T13:22:58.532Z,6.20
2018-05-15T13:25:26.147Z,7.17
2018-05-15T13:27:53.779Z,8.57
2018-05-15T13:30:21.386Z,6.80
2018-05-15T13:32:49.015Z,5.90
2018-05-15T13:35:16.681Z,7.67
2018-05-15T13:37:44.321Z,6.53
2018-05-15T13:40:11.994Z,6.03
2018-05-15T13:42:39.623Z,5.90
2018-05-15T13:45:07.323Z,6.67
2018-05-15T13:47:34.959Z,6.00
2018-05-15T13:50:02.571Z,6.90
2018-05-15T13:52:30.405Z,6.60
2018-05-15T13:54:58.011Z,6.67
2018-05-15T13:57:25.666Z,6.23
2018-05-15T13:59:53.278Z,5.60
2018-05-15T14:02:20.891Z,6.10
2018-05-15T14:04:48.519Z,7.13
2018-05-15T14:07:16.131Z,7.53
2018-05-15T14:09:43.762Z,7.47
2018-05-15T14:12:11.375Z,7.33
2018-05-15T14:14:39.064Z,6.30
2018-05-15T14:17:06.730Z,8.20
2018-05-15T14:19:34.395Z,8.80
2018-05-15T14:22:02.010Z,8.10
2018-05-15T14:24:29.647Z,6.67
2018-05-15T14:26:57.279Z,7.97
2018-05-15T14:29:24.933Z,8.40
2018-05-15T14:31:52.602Z,7.73
2018-05-15T14:34:20.271Z,8.10
2018-05-15T14:36:48.023Z,7.97
2018-05-15T14:39:15.654Z,8.60
2018-05-15T14:41:55.032Z,7.87
2018-05-15T14:44:22.775Z,8.70
2018-05-15T14:46:50.394Z,9.03
2018-05-15T14:49:18.119Z,8.60
2018-05-15T14:51:45.735Z,9.00
2018-05-15T14:54:13.449Z,7.70
2018-05-15T14:56:41.059Z,9.03
2018-05-15T14:59:08.711Z,9.60
2018-05-15T15:01:36.426Z,8.17
2018-05-15T15:04:04.087Z,8.13
2018-05-15T15:06:31.723Z,9.27
2018-05-15T15:08:59.525Z,9.47
2018-05-15T15:11:27.187Z,9.27
2018-05-15T15:13:54.796Z,9.30
2018-05-15T15:16:22.432Z,9.67
2018-05-15T15:18:50.046Z,9.47
2018-05-15T15:21:17.686Z,9.20
2018-05-15T15:23:45.379Z,8.90
2018-05-15T15:26:12.950Z,9.00
2018-05-15T15:28:40.559Z,9.00
2018-05-15T15:31:08.199Z,9.03
2018-05-15T15:33:35.830Z,9.13
2018-05-15T15:36:03.467Z,8.67
2018-05-15T15:38:31.163Z,10.70
2018-05-15T15:40:58.799Z,10.10
2018-05-15T15:43:26.419Z,9.33
2018-05-15T15:45:54.150Z,11.30
2018-05-15T15:48:21.767Z,10.40
2018-05-15T15:50:49.414Z,10.00
2018-05-15T15:53:17.039Z,10.13
2018-05-15T15:55:44.704Z,9.53
2018-05-15T15:58:12.318Z,10.50
2018-05-15T16:00:39.994Z,10.03
2018-05-15T16:03:07.687Z,10.80
2018-05-15T16:05:35.326Z,10.33
2018-05-15T16:08:02.959Z,9.63
2018-05-15T16:10:30.571Z,9.67
2018-05-15T16:12:58.211Z,9.70
2018-05-15T16:15:25.894Z,8.03
2018-05-15T16:17:53.575Z,9.33
2018-05-15T16:20:21.179Z,9.67
2018-05-15T16:22:48.850Z,9.80
2018-05-15T16:25:16.456Z,8.70
2018-05-15T16:27:44.106Z,9.33
2018-05-15T16:30:11.723Z,10.37
2018-05-15T16:32:39.386Z,10.20
2018-05-15T16:35:07.003Z,10.50
2018-05-15T16:37:34.704Z,11.50
2018-05-15T16:40:02.295Z,10.87
2018-05-15T16:42:29.979Z,11.27
2018-05-15T16:44:57.644Z,11.43
2018-05-15T16:47:25.291Z,12.00
2018-05-15T16:49:52.936Z,12.60
2018-05-15T16:52:20.622Z,11.90
2018-05-15T16:54:48.291Z,11.13
2018-05-15T16:57:15.956Z,10.97
2018-05-15T16:59:43.615Z,13.50
2018-05-15T17:02:11.279Z,14.30
2018-05-15T17:04:38.899Z,14.60
2018-05-15T17:07:06.534Z,14.60
2018-05-15T17:09:34.166Z,15.77
2018-05-15T17:12:01.828Z,14.70
2018-05-15T17:14:29.672Z,15.90
2018-05-15T17:16:57.455Z,15.80
2018-05-15T17:19:25.119Z,16.47
2018-05-15T17:21:52.738Z,16.73
2018-05-15T17:24:20.452Z,16.67
2018-05-15T17:26:48.072Z,17.70
2018-05-15T17:29:15.718Z,17.87
2018-05-15T17:31:43.330Z,17.03
2018-05-15T17:34:10.971Z,18.07
2018-05-15T17:36:38.583Z,17.40
2018-05-15T17:39:06.223Z,20.77
2018-05-15T17:41:33.838Z,19.47
2018-05-15T17:44:01.476Z,18.67
2018-05-15T17:46:29.099Z,17.77
2018-05-15T17:48:56.735Z,17.60
2018-05-15T17:51:24.354Z,18.23
2018-05-15T17:53:52.082Z,17.67
2018-05-15T17:56:19.699Z,17.40
2018-05-15T17:58:47.338Z,18.53
2018-05-15T18:01:14.951Z,17.10
2018-05-15T18:03:42.630Z,17.30
2018-05-15T18:06:10.242Z,17.97
2018-05-15T18:08:38.036Z,19.43
2018-05-15T18:11:05.611Z,18.20
2018-05-15T18:13:33.251Z,18.93
2018-05-15T18:16:00.867Z,17.57
2018-05-15T18:18:28.503Z,19.10
2018-05-15T18:20:56.121Z,18.87
2018-05-15T18:23:23.832Z,20.50
2018-05-15T18:25:51.449Z,19.97
2018-05-15T18:28:19.155Z,20.00
2018-05-15T18:30:46.771Z,20.47
2018-05-15T18:33:14.397Z,19.60
2018-05-15T18:35:42.143Z,18.43
2018-05-15T18:38:09.812Z,20.80
2018-05-15T18:40:37.453Z,19.23
2018-05-15T18:43:05.074Z,18.90
2018-05-15T18:45:32.715Z,19.00
2018-05-15T18:48:00.351Z,19.87
2018-05-15T18:50:27.995Z,18.90
2018-05-15T18:52:55.611Z,20.77
2018-05-15T18:55:23.250Z,18.37
2018-05-15T18:57:50.867Z,17.23
2018-05-15T19:00:18.516Z,20.43
2018-05-15T19:02:46.223Z,19.87
2018-05-15T19:05:13.887Z,18.40
2018-05-15T19:07:41.555Z,20.70
2018-05-15T19:10:09.306Z,18.40
2018-05-15T19:12:36.918Z,18.80
2018-05-15T19:15:04.563Z,19.67
2018-05-15T19:17:32.180Z,20.50
2018-05-15T19:19:59.860Z,21.73
2018-05-15T19:22:27.527Z,21.17
2018-05-15T19:24:55.176Z,20.07
2018-05-15T19:27:22.795Z,20.30
2018-05-15T19:29:50.439Z,21.23
2018-05-15T19:32:18.062Z,20.93
2018-05-15T19:34:51.439Z,23.00
2018-05-15T19:37:19.059Z,23.63
2018-05-15T19:39:46.694Z,24.33
2018-05-15T19:42:14.310Z,22.97
2018-05-15T19:44:42.019Z,21.03
2018-05-15T19:47:09.678Z,22.50
2018-05-15T19:49:37.301Z,20.77
2018-05-15T19:52:05.046Z,21.60
2018-05-15T19:54:32.646Z,23.03
2018-05-15T19:57:00.328Z,23.40
2018-05-15T19:59:27.946Z,22.57
2018-05-15T20:01:55.672Z,25.33
2018-05-15T20:04:23.226Z,25.23
2018-05-15T20:06:50.863Z,23.80
2018-05-15T20:09:18.536Z,23.03
2018-05-15T20:11:46.207Z,23.30
2018-05-15T20:14:13.863Z,24.20
2018-05-15T20:16:41.528Z,21.97
2018-05-15T20:19:09.143Z,25.00
2018-05-15T20:21:36.779Z,26.00
2018-05-15T20:24:04.410Z,28.10
2018-05-15T20:26:32.074Z,25.30
2018-05-15T20:28:59.735Z,25.17
2018-05-15T20:31:27.357Z,26.40
2018-05-15T20:33:55.058Z,27.90
2018-05-15T20:36:22.703Z,26.53
2018-05-15T20:38:50.321Z,23.23
2018-05-15T20:41:17.959Z,26.87
2018-05-15T20:43:45.578Z,25.07
2018-05-15T20:46:13.579Z,26.77
2018-05-15T20:48:41.198Z,26.53
2018-05-15T20:51:08.842Z,25.47
2018-05-15T20:53:36.467Z,25.60
2018-05-15T20:56:04.231Z,24.37
2018-05-15T20:58:31.842Z,25.63
2018-05-15T21:00:59.454Z,25.90
2018-05-15T21:03:27.095Z,25.40
2018-05-15T21:05:54.775Z,26.23
2018-05-15T21:08:22.419Z,25.57
2018-05-15T21:10:50.040Z,30.20
2018-05-15T21:13:17.682Z,26.03
2018-05-15T21:15:45.294Z,28.17
2018-05-15T21:18:12.991Z,28.50
2018-05-15T21:20:40.650Z,25.30
2018-05-15T21:23:08.315Z,29.03
2018-05-15T21:25:36.067Z,29.17
2018-05-15T21:28:03.702Z,29.03
2018-05-15T21:30:31.315Z,29.40
2018-05-15T21:32:59.062Z,27.27
2018-05-15T21:35:26.731Z,28.40
2018-05-15T21:37:54.369Z,28.07
2018-05-15T21:40:22.059Z,31.00
2018-05-15T21:42:49.694Z,30.60
2018-05-15T21:45:17.376Z,30.80
2018-05-15T21:47:45.019Z,34.17
2018-05-15T21:50:12.635Z,33.97
2018-05-15T21:52:40.273Z,32.23
2018-05-15T21:55:07.912Z,36.43
2018-05-15T21:57:35.576Z,36.20
2018-05-15T22:00:03.192Z,39.60
2018-05-15T22:02:30.830Z,37.10
2018-05-15T22:04:58.452Z,38.60
2018-05-15T22:07:26.094Z,36.97
2018-05-15T22:09:53.800Z,40.47
2018-05-15T22:12:33.111Z,39.40
2018-05-15T22:15:12.570Z,40.00
2018-05-15T22:17:51.944Z,39.70
2018-05-15T22:20:31.512Z,35.60
2018-05-15T22:22:58.571Z,36.00
2018-05-15T22:25:26.191Z,35.00
2018-05-15T22:27:53.846Z,36.60
2018-05-15T22:30:21.462Z,36.07
2018-05-15T22:32:49.078Z,36.97
2018-05-15T22:35:16.718Z,31.03
2018-05-15T22:37:44.367Z,36.33
2018-05-15T22:40:12.034Z,34.63
2018-05-15T22:42:39.659Z,38.43
2018-05-15T22:45:07.354Z,34.07
2018-05-15T22:47:34.968Z,40.60
2018-05-15T22:50:02.607Z,40.83
2018-05-15T22:52:30.855Z,37.63
2018-05-15T22:54:58.496Z,36.53
2018-05-15T22:57:26.114Z,34.87
2018-05-15T22:59:53.842Z,34.03
2018-05-15T23:02:21.460Z,34.47
2018-05-15T23:04:49.098Z,39.07
2018-05-15T23:07:16.718Z,38.67
2018-05-15T23:09:44.392Z,36.40
2018-05-15T23:12:12.006Z,35.30
2018-05-15T23:14:39.647Z,37.60
2018-05-15T23:17:07.266Z,38.30
2018-05-15T23:19:34.936Z,38.40
2018-05-15T23:22:02.600Z,37.70
2018-05-15T23:24:30.252Z,35.33
2018-05-15T23:26:57.926Z,36.60
2018-05-15T23:29:25.705Z,36.70
2018-05-15T23:31:53.251Z,33.93
2018-05-15T23:34:20.925Z,37.20
2018-05-15T23:36:48.574Z,39.17
2018-05-15T23:39:16.188Z,34.27
2018-05-15T23:41:43.839Z,40.83
2018-05-15T23:44:11.459Z,36.20
2018-05-15T23:46:39.123Z,40.10
2018-05-15T23:49:06.743Z,38.10
2018-05-15T23:51:34.447Z,33.53
2018-05-15T23:54:02.106Z,33.57
2018-05-15T23:56:29.747Z,38.90
2018-05-15T23:58:57.366Z,33.30
